createdAt,value
2023-04-21T00:00:52.682Z,98648.22
2023-04-21T00:03:21.926Z,98646.19
2023-04-21T00:05:48.758Z,98625.06
2023-04-21T00:08:16.856Z,98649.78
2023-04-21T00:10:43.955Z,98651.47
2023-04-21T00:13:10.903Z,98644.69
2023-04-21T00:15:37.533Z,98653.25
2023-04-21T00:18:04.508Z,98641.34
2023-04-21T00:20:31.490Z,98642.78
2023-04-21T00:22:58.626Z,98644.59
2023-04-21T00:25:25.933Z,98636.13
2023-04-21T00:27:52.592Z,98630.75
2023-04-21T00:30:19.264Z,98639.41
2023-04-21T00:32:46.240Z,98632.53
2023-04-21T00:35:12.846Z,98616.63
2023-04-21T00:37:40.411Z,98630.84
2023-04-21T00:40:07.792Z,98609.75
2023-04-21T00:42:37.017Z,98626.31
2023-04-21T00:45:06.002Z,98628.94
2023-04-21T00:47:32.725Z,98623.78
2023-04-21T00:49:59.687Z,98620.63
2023-04-21T00:52:27.152Z,98624.09
2023-04-21T00:54:54.209Z,98628.31
2023-04-21T00:57:21.476Z,98620.38
2023-04-21T00:59:48.328Z,98620.38
2023-04-21T01:02:17.002Z,98608.47
2023-04-21T01:04:45.483Z,98621.34
2023-04-21T01:07:12.859Z,98615.22
2023-04-21T01:09:39.680Z,98613.75
2023-04-21T01:12:11.158Z,98616.50
2023-04-21T01:14:39.114Z,98622.41
2023-04-21T01:17:06.244Z,98615.34
2023-04-21T01:19:35.757Z,98610.59
2023-04-21T01:22:03.747Z,98638.28
2023-04-21T01:24:40.892Z,98633.00
2023-04-21T01:27:19.034Z,98620.72
2023-04-21T01:29:50.672Z,98631.31
2023-04-21T01:32:20.406Z,98628.66
2023-04-21T01:34:47.951Z,98630.47
2023-04-21T01:37:20.965Z,98626.25
2023-04-21T01:39:54.303Z,98630.81
2023-04-21T01:42:26.864Z,98625.63
2023-04-21T01:44:54.576Z,98616.44
2023-04-21T01:47:22.434Z,98614.63
2023-04-21T01:49:49.111Z,98605.13
2023-04-21T01:52:15.969Z,98607.91
2023-04-21T01:54:42.654Z,98617.19
2023-04-21T01:57:09.373Z,98602.09
2023-04-21T01:59:37.239Z,98617.06
2023-04-21T02:02:04.526Z,98625.84
2023-04-21T02:04:33.701Z,98620.56
2023-04-21T02:07:00.423Z,98618.88
2023-04-21T02:09:27.038Z,98618.03
2023-04-21T02:11:55.421Z,98622.47
2023-04-21T02:14:22.037Z,98621.63
2023-04-21T02:16:48.661Z,98621.63
2023-04-21T02:19:15.279Z,98624.28
2023-04-21T02:21:41.843Z,98619.09
2023-04-21T02:24:08.434Z,98606.44
2023-04-21T02:26:35.040Z,98607.28
2023-04-21T02:29:02.175Z,98615.63
2023-04-21T02:31:29.162Z,98621.00
2023-04-21T02:33:55.988Z,98624.63
2023-04-21T02:36:22.534Z,98624.63
2023-04-21T02:38:49.094Z,98627.38
2023-04-21T02:41:15.673Z,98623.03
2023-04-21T02:43:42.230Z,98629.19
2023-04-21T02:46:09.174Z,98627.47
2023-04-21T02:48:36.430Z,98617.03
2023-04-21T02:51:04.272Z,98623.16
2023-04-21T02:53:31.648Z,98620.63
2023-04-21T02:55:58.303Z,98619.88
2023-04-21T02:58:25.499Z,98626.75
2023-04-21T03:00:52.113Z,98617.22
2023-04-21T03:03:19.075Z,98626.03
2023-04-21T03:05:45.972Z,98623.47
2023-04-21T03:08:12.614Z,98627.09
2023-04-21T03:10:39.215Z,98620.94
2023-04-21T03:13:06.006Z,98605.13
2023-04-21T03:15:32.549Z,98622.03
2023-04-21T03:18:01.798Z,98602.50
2023-04-21T03:20:28.704Z,98621.28
2023-04-21T03:22:55.313Z,98588.25
2023-04-21T03:25:22.223Z,98621.41
2023-04-21T03:27:49.218Z,98620.56
2023-04-21T03:30:15.884Z,98626.81
2023-04-21T03:32:42.594Z,98612.44
2023-04-21T03:35:09.300Z,98615.72
2023-04-21T03:37:36.057Z,98623.53
2023-04-21T03:40:06.076Z,98622.47
2023-04-21T03:42:33.348Z,98619.94
2023-04-21T03:45:03.917Z,98622.59
2023-04-21T03:47:33.446Z,98632.22
2023-04-21T03:50:00.263Z,98627.00
2023-04-21T03:52:26.854Z,98629.78
2023-04-21T03:54:53.798Z,98636.88
2023-04-21T03:57:20.658Z,98643.84
2023-04-21T03:59:47.169Z,98643.00
2023-04-21T04:02:13.807Z,98628.06
2023-04-21T04:04:40.562Z,98635.19
2023-04-21T04:07:08.768Z,98634.31
2023-04-21T04:09:35.364Z,98638.03
2023-04-21T04:12:03.382Z,98632.47
2023-04-21T04:14:30.296Z,98601.16
2023-04-21T04:16:58.741Z,98631.72
2023-04-21T04:19:30.865Z,98639.78
2023-04-21T04:22:01.280Z,98654.00
2023-04-21T04:24:28.215Z,98656.66
2023-04-21T04:26:55.280Z,98656.75
2023-04-21T04:29:22.686Z,98657.72
2023-04-21T04:31:52.332Z,98660.34
2023-04-21T04:34:19.607Z,98665.66
2023-04-21T04:36:48.001Z,98677.06
2023-04-21T04:39:16.356Z,98655.78
2023-04-21T04:41:43.156Z,98675.28
2023-04-21T04:44:11.466Z,98672.63
2023-04-21T04:46:39.309Z,98662.59
2023-04-21T04:49:05.974Z,98668.16
2023-04-21T04:51:32.772Z,98676.03
2023-04-21T04:53:59.493Z,98673.38
2023-04-21T04:56:26.021Z,98665.13
2023-04-21T04:58:52.710Z,98669.97
2023-04-21T05:01:19.431Z,98663.75
2023-04-21T05:03:46.843Z,98668.41
2023-04-21T05:06:14.330Z,98666.28
2023-04-21T05:08:43.740Z,98671.56
2023-04-21T05:11:10.320Z,98669.13
2023-04-21T05:13:39.632Z,98673.47
2023-04-21T05:16:07.284Z,98680.00
2023-04-21T05:18:33.827Z,98667.34
2023-04-21T05:21:00.521Z,98676.41
2023-04-21T05:23:27.304Z,98679.81
2023-04-21T05:25:53.852Z,98679.81
2023-04-21T05:28:20.488Z,98681.38
2023-04-21T05:30:47.119Z,98667.03
2023-04-21T05:33:13.930Z,98679.56
2023-04-21T05:35:40.705Z,98685.47
2023-04-21T05:38:07.263Z,98686.22
2023-04-21T05:40:34.020Z,98663.06
2023-04-21T05:43:00.650Z,98671.44
2023-04-21T05:45:27.167Z,98684.41
2023-04-21T05:47:53.722Z,98680.81
2023-04-21T05:50:20.389Z,98674.78
2023-04-21T05:52:46.938Z,98656.09
2023-04-21T05:55:13.705Z,98680.69
2023-04-21T05:57:40.338Z,98682.41
2023-04-21T06:00:07.638Z,98678.06
2023-04-21T06:02:34.305Z,98678.06
2023-04-21T06:05:01.220Z,98673.72
2023-04-21T06:07:28.146Z,98650.91
2023-04-21T06:09:57.145Z,98668.34
2023-04-21T06:12:23.687Z,98670.13
2023-04-21T06:14:50.417Z,98666.78
2023-04-21T06:17:17.955Z,98669.06
2023-04-21T06:19:44.767Z,98671.81
2023-04-21T06:22:11.322Z,98671.00
2023-04-21T06:24:37.868Z,98669.91
2023-04-21T06:27:09.363Z,98670.75
2023-04-21T06:29:36.209Z,98669.81
2023-04-21T06:32:02.859Z,98676.78
2023-04-21T06:34:29.726Z,98652.91
2023-04-21T06:36:56.258Z,98669.81
2023-04-21T06:39:22.850Z,98670.53
2023-04-21T06:41:49.435Z,98670.53
2023-04-21T06:44:17.830Z,98666.09
2023-04-21T06:46:44.705Z,98668.59
2023-04-21T06:49:11.864Z,98667.78
2023-04-21T06:51:39.373Z,98669.47
2023-04-21T06:54:06.183Z,98671.25
2023-04-21T06:56:33.372Z,98658.28
2023-04-21T06:59:00.374Z,98664.91
2023-04-21T07:01:26.994Z,98666.59
2023-04-21T07:03:53.845Z,98674.44
2023-04-21T07:06:20.535Z,98650.66
2023-04-21T07:08:47.126Z,98666.38
2023-04-21T07:11:15.548Z,98657.72
2023-04-21T07:13:42.086Z,98665.31
2023-04-21T07:16:08.662Z,98664.34
2023-04-21T07:18:35.296Z,98655.91
2023-04-21T07:21:01.881Z,98655.47
2023-04-21T07:23:28.545Z,98657.13
2023-04-21T07:25:57.752Z,98662.34
2023-04-21T07:28:24.408Z,98626.03
2023-04-21T07:30:53.872Z,98661.25
2023-04-21T07:33:20.557Z,98662.34
2023-04-21T07:35:47.306Z,98647.75
2023-04-21T07:38:13.860Z,98662.97
2023-04-21T07:40:40.807Z,98662.09
2023-04-21T07:43:07.366Z,98667.28
2023-04-21T07:45:33.876Z,98657.53
2023-04-21T07:48:00.602Z,98648.16
2023-04-21T07:50:27.230Z,98643.19
2023-04-21T07:52:53.798Z,98660.19
2023-04-21T07:55:23.318Z,98649.59
2023-04-21T07:57:50.457Z,98632.44
2023-04-21T08:00:17.398Z,98641.50
2023-04-21T08:02:44.115Z,98636.34
2023-04-21T08:05:11.212Z,98637.41
2023-04-21T08:07:38.863Z,98648.75
2023-04-21T08:10:07.801Z,98646.09
2023-04-21T08:12:34.462Z,98646.34
2023-04-21T08:15:05.709Z,98653.09
2023-04-21T08:17:32.391Z,98633.44
2023-04-21T08:19:59.677Z,98649.59
2023-04-21T08:22:26.682Z,98648.66
2023-04-21T08:24:53.302Z,98655.66
2023-04-21T08:27:19.977Z,98645.91
2023-04-21T08:29:46.626Z,98645.91
2023-04-21T08:32:13.640Z,98646.72
2023-04-21T08:34:40.364Z,98629.09
2023-04-21T08:37:06.945Z,98646.63
2023-04-21T08:39:33.769Z,98643.13
2023-04-21T08:42:02.314Z,98624.44
2023-04-21T08:44:28.860Z,98645.69
2023-04-21T08:46:56.720Z,98643.03
2023-04-21T08:49:24.471Z,98644.69
2023-04-21T08:51:51.330Z,98632.78
2023-04-21T08:54:17.913Z,98635.94
2023-04-21T08:56:44.502Z,98632.78
2023-04-21T08:59:11.166Z,98625.56
2023-04-21T09:02:10.208Z,98631.38
2023-04-21T09:04:45.139Z,98628.81
2023-04-21T09:07:12.906Z,98623.16
2023-04-21T09:09:52.484Z,98630.00
2023-04-21T09:12:19.542Z,98626.09
2023-04-21T09:14:46.551Z,98627.88
2023-04-21T09:17:16.305Z,98633.16
2023-04-21T09:19:43.379Z,98629.56
2023-04-21T09:22:14.117Z,98629.56
2023-04-21T09:24:58.088Z,98619.94
2023-04-21T09:27:24.783Z,98615.72
2023-04-21T09:29:51.649Z,98625.00
2023-04-21T09:32:19.717Z,98613.47
2023-04-21T09:34:47.378Z,98617.78
2023-04-21T09:37:18.988Z,98614.31
2023-04-21T09:40:03.609Z,98621.28
2023-04-21T09:42:39.270Z,98590.34
2023-04-21T09:45:29.038Z,98607.94
2023-04-21T09:47:59.105Z,98610.59
2023-04-21T09:51:01.785Z,98602.53
2023-04-21T09:53:17.069Z,98611.53
2023-04-21T09:55:48.318Z,98612.19
2023-04-21T09:58:19.631Z,98603.28
2023-04-21T10:00:47.288Z,98596.19
2023-04-21T10:03:17.413Z,98579.41
2023-04-21T10:05:44.266Z,98585.53
2023-04-21T10:08:12.082Z,98604.88
2023-04-21T10:10:39.236Z,98587.59
2023-04-21T10:13:05.990Z,98592.38
2023-04-21T10:15:35.575Z,98582.56
2023-04-21T10:18:22.457Z,98594.06
2023-04-21T10:20:56.503Z,98597.53
2023-04-21T10:23:43.356Z,98598.28
2023-04-21T10:26:11.914Z,98597.31
2023-04-21T10:28:46.749Z,98594.69
2023-04-21T10:31:51.241Z,98589.25
2023-04-21T10:34:21.893Z,98588.75
2023-04-21T10:36:51.829Z,98596.25
2023-04-21T10:39:29.791Z,98589.25
2023-04-21T10:42:00.552Z,98583.47
2023-04-21T10:44:29.070Z,98593.69
2023-04-21T10:46:58.956Z,98556.91
2023-04-21T10:49:28.453Z,98585.53
2023-04-21T10:51:57.790Z,98586.38
2023-04-21T10:54:28.628Z,98582.75
2023-04-21T10:56:59.208Z,98581.94
2023-04-21T10:59:28.698Z,98567.34
2023-04-21T11:01:55.913Z,98572.28
2023-04-21T11:04:23.972Z,98580.97
2023-04-21T11:07:14.104Z,98570.25
2023-04-21T11:09:42.311Z,98550.72
2023-04-21T11:12:11.163Z,98573.75
2023-04-21T11:14:39.417Z,98565.81
2023-04-21T11:17:17.535Z,98570.13
2023-04-21T11:19:50.062Z,98561.25
2023-04-21T11:22:18.491Z,98568.31
2023-04-21T11:24:48.702Z,98563.88
2023-04-21T11:27:15.560Z,98561.13
2023-04-21T11:29:42.288Z,98555.00
2023-04-21T11:32:09.400Z,98554.88
2023-04-21T11:34:39.593Z,98554.03
2023-04-21T11:37:14.111Z,98549.56
2023-04-21T11:39:41.918Z,98559.19
2023-04-21T11:42:08.483Z,98546.44
2023-04-21T11:44:43.212Z,98554.75
2023-04-21T11:47:12.883Z,98556.44
2023-04-21T11:49:48.014Z,98545.47
2023-04-21T11:52:22.760Z,98559.94
2023-04-21T11:54:54.813Z,98557.28
2023-04-21T11:57:22.893Z,98508.75
2023-04-21T11:59:49.559Z,98538.25
2023-04-21T12:02:34.661Z,98537.78
2023-04-21T12:05:06.820Z,98528.53
2023-04-21T12:07:35.700Z,98531.53
2023-04-21T12:10:08.978Z,98539.34
2023-04-21T12:12:39.177Z,98530.56
2023-04-21T12:15:10.994Z,98533.09
2023-04-21T12:17:38.644Z,98528.75
2023-04-21T12:20:07.353Z,98527.09
2023-04-21T12:22:34.025Z,98517.69
2023-04-21T12:25:00.647Z,98526.84
2023-04-21T12:27:27.884Z,98514.56
2023-04-21T12:29:57.697Z,98510.94
2023-04-21T12:32:24.492Z,98510.13
2023-04-21T12:34:51.190Z,98505.91
2023-04-21T12:37:18.766Z,98507.56
2023-04-21T12:39:45.330Z,98509.16
2023-04-21T12:42:12.090Z,98503.88
2023-04-21T12:44:39.103Z,98502.88
2023-04-21T12:47:06.302Z,98499.41
2023-04-21T12:49:32.946Z,98490.84
2023-04-21T12:51:59.686Z,98503.00
2023-04-21T12:54:26.192Z,98509.88
2023-04-21T12:56:53.125Z,98502.78
2023-04-21T12:59:19.666Z,98507.22
2023-04-21T13:01:46.357Z,98497.47
2023-04-21T13:04:13.438Z,98476.53
2023-04-21T13:06:40.649Z,98491.31
2023-04-21T13:09:07.632Z,98484.47
2023-04-21T13:11:34.553Z,98482.44
2023-04-21T13:14:01.109Z,98462.09
2023-04-21T13:16:30.078Z,98486.03
2023-04-21T13:18:57.086Z,98473.28
2023-04-21T13:21:23.681Z,98484.13
2023-04-21T13:23:50.239Z,98483.16
2023-04-21T13:26:17.561Z,98480.50
2023-04-21T13:28:44.203Z,98473.66
2023-04-21T13:31:11.302Z,98478.69
2023-04-21T13:33:38.035Z,98470.63
2023-04-21T13:36:05.378Z,98467.16
2023-04-21T13:38:32.393Z,98459.19
2023-04-21T13:40:59.013Z,98463.53
2023-04-21T13:43:25.663Z,98462.59
2023-04-21T13:45:52.503Z,98456.44
2023-04-21T13:48:21.262Z,98450.16
2023-04-21T13:50:48.046Z,98449.69
2023-04-21T13:53:19.257Z,98441.03
2023-04-21T13:55:47.561Z,98449.69
2023-04-21T13:58:15.855Z,98432.38
2023-04-21T14:00:42.934Z,98449.34
2023-04-21T14:03:10.104Z,98427.19
2023-04-21T14:05:37.154Z,98425.13
2023-04-21T14:08:03.859Z,98438.00
2023-04-21T14:10:31.196Z,98438.63
2023-04-21T14:12:57.799Z,98439.44
2023-04-21T14:15:26.289Z,98439.44
2023-04-21T14:17:53.544Z,98445.69
2023-04-21T14:20:20.376Z,98441.13
2023-04-21T14:22:46.879Z,98428.75
2023-04-21T14:25:15.337Z,98438.50
2023-04-21T14:27:41.975Z,98440.31
2023-04-21T14:30:10.460Z,98409.50
2023-04-21T14:32:37.307Z,98419.63
2023-04-21T14:35:05.588Z,98425.25
2023-04-21T14:37:32.982Z,98418.25
2023-04-21T14:39:59.845Z,98411.53
2023-04-21T14:42:26.719Z,98423.47
2023-04-21T14:44:53.722Z,98408.41
2023-04-21T14:47:21.495Z,98386.03
2023-04-21T14:49:49.853Z,98404.06
2023-04-21T14:52:16.498Z,98398.91
2023-04-21T14:54:43.328Z,98407.56
2023-04-21T14:57:18.751Z,98411.06
2023-04-21T14:59:48.492Z,98403.34
2023-04-21T15:02:15.419Z,98403.22
2023-04-21T15:04:42.352Z,98401.53
2023-04-21T15:07:09.085Z,98403.22
2023-04-21T15:09:36.434Z,98397.94
2023-04-21T15:12:03.603Z,98399.72
2023-04-21T15:14:30.881Z,98387.34
2023-04-21T15:16:57.575Z,98391.78
2023-04-21T15:19:25.754Z,98390.00
2023-04-21T15:21:52.854Z,98386.38
2023-04-21T15:24:19.523Z,98392.50
2023-04-21T15:26:46.064Z,98387.34
2023-04-21T15:29:12.723Z,98389.72
2023-04-21T15:31:43.679Z,98330.72
2023-04-21T15:34:10.559Z,98382.75
2023-04-21T15:36:37.177Z,98378.53
2023-04-21T15:39:03.989Z,98369.16
2023-04-21T15:41:31.564Z,98381.69
2023-04-21T15:43:59.943Z,98372.53
2023-04-21T15:46:26.931Z,98383.75
2023-04-21T15:48:54.024Z,98380.09
2023-04-21T15:51:20.825Z,98378.44
2023-04-21T15:53:48.910Z,98379.28
2023-04-21T15:56:16.756Z,98380.00
2023-04-21T15:58:43.642Z,98374.69
2023-04-21T16:01:10.393Z,98373.75
2023-04-21T16:03:37.296Z,98374.69
2023-04-21T16:06:04.308Z,98371.19
2023-04-21T16:08:33.138Z,98374.69
2023-04-21T16:11:00.391Z,98368.53
2023-04-21T16:13:27.393Z,98377.44
2023-04-21T16:15:54.033Z,98372.06
2023-04-21T16:18:20.983Z,98344.75
2023-04-21T16:20:47.836Z,98353.28
2023-04-21T16:23:15.379Z,98352.69
2023-04-21T16:25:42.568Z,98326.72
2023-04-21T16:28:09.767Z,98364.94
2023-04-21T16:30:38.536Z,98341.38
2023-04-21T16:33:05.337Z,98261.53
2023-04-21T16:35:32.031Z,98373.00
2023-04-21T16:37:58.749Z,98347.53
2023-04-21T16:40:26.407Z,98357.63
2023-04-21T16:42:53.102Z,98362.66
2023-04-21T16:45:19.777Z,98357.84
2023-04-21T16:47:46.653Z,98345.84
2023-04-21T16:50:15.947Z,98337.56
2023-04-21T16:52:42.538Z,98364.69
2023-04-21T16:55:09.284Z,98361.22
2023-04-21T16:57:36.190Z,98350.31
2023-04-21T17:00:06.877Z,98366.66
2023-04-21T17:02:34.154Z,98357.16
2023-04-21T17:05:01.149Z,98364.09
2023-04-21T17:07:27.892Z,98362.44
2023-04-21T17:09:54.570Z,98362.53
2023-04-21T17:12:21.540Z,98362.53
2023-04-21T17:14:48.582Z,98360.88
2023-04-21T17:17:15.612Z,98341.25
2023-04-21T17:19:42.247Z,98356.78
2023-04-21T17:22:09.150Z,98354.00
2023-04-21T17:24:51.833Z,98359.31
2023-04-21T17:27:21.407Z,98358.84
2023-04-21T17:29:48.193Z,98353.31
2023-04-21T17:32:18.031Z,98328.31
2023-04-21T17:34:45.068Z,98365.81
2023-04-21T17:37:11.657Z,98360.53
2023-04-21T17:39:38.673Z,98360.66
2023-04-21T17:42:05.336Z,98358.97
2023-04-21T17:44:31.908Z,98356.44
2023-04-21T17:46:58.459Z,98360.78
2023-04-21T17:49:25.428Z,98347.31
2023-04-21T17:51:52.098Z,98360.88
2023-04-21T17:54:19.085Z,98359.19
2023-04-21T17:56:46.310Z,98347.53
2023-04-21T17:59:13.345Z,98356.69
2023-04-21T18:01:39.880Z,98366.44
2023-04-21T18:04:06.985Z,98363.91
2023-04-21T18:06:34.344Z,98364.88
2023-04-21T18:09:01.345Z,98368.47
2023-04-21T18:11:27.941Z,98327.91
2023-04-21T18:13:54.582Z,98368.59
2023-04-21T18:16:21.127Z,98352.63
2023-04-21T18:18:47.788Z,98367.88
2023-04-21T18:21:17.805Z,98368.97
2023-04-21T18:23:44.624Z,98369.31
2023-04-21T18:26:11.618Z,98378.69
2023-04-21T18:28:38.222Z,98383.16
2023-04-21T18:31:04.860Z,98375.34
2023-04-21T18:33:31.591Z,98376.31
2023-04-21T18:35:58.370Z,98372.41
2023-04-21T18:38:25.263Z,98375.56
2023-04-21T18:40:51.864Z,98379.19
2023-04-21T18:43:18.476Z,98378.22
2023-04-21T18:45:45.172Z,98380.16
2023-04-21T18:48:12.166Z,98380.22
2023-04-21T18:50:40.835Z,98381.13
2023-04-21T18:53:08.470Z,98376.75
2023-04-21T18:55:36.135Z,98373.38
2023-04-21T18:58:02.894Z,98379.75
2023-04-21T19:00:31.881Z,98366.28
2023-04-21T19:03:02.536Z,98382.41
2023-04-21T19:05:31.521Z,98380.63
2023-04-21T19:07:58.698Z,98362.94
2023-04-21T19:10:25.872Z,98368.31
2023-04-21T19:12:53.811Z,98377.22
2023-04-21T19:15:22.240Z,98378.19
2023-04-21T19:17:48.954Z,98387.09
2023-04-21T19:20:15.698Z,98377.59
2023-04-21T19:22:42.500Z,98374.13
2023-04-21T19:25:09.675Z,98379.28
2023-04-21T19:27:36.945Z,98365.91
2023-04-21T19:30:06.647Z,98376.75
2023-04-21T19:32:33.465Z,98370.88
2023-04-21T19:35:00.103Z,98370.47
2023-04-21T19:37:28.030Z,98380.50
2023-04-21T19:39:54.829Z,98382.28
2023-04-21T19:42:21.648Z,98389.38
2023-04-21T19:44:50.588Z,98391.16
2023-04-21T19:47:17.395Z,98382.00
2023-04-21T19:49:43.980Z,98382.00
2023-04-21T19:52:10.736Z,98392.25
2023-04-21T19:54:37.593Z,98391.41
2023-04-21T19:57:07.183Z,98390.56
2023-04-21T19:59:36.442Z,98392.38
2023-04-21T20:02:03.579Z,98389.84
2023-04-21T20:04:31.013Z,98392.59
2023-04-21T20:06:58.001Z,98391.75
2023-04-21T20:09:24.565Z,98392.59
2023-04-21T20:11:51.353Z,98368.19
2023-04-21T20:14:18.922Z,98391.03
2023-04-21T20:16:46.466Z,98390.22
2023-04-21T20:19:13.298Z,98397.31
2023-04-21T20:21:43.981Z,98395.63
2023-04-21T20:24:13.334Z,98401.00
2023-04-21T20:26:39.959Z,98396.09
2023-04-21T20:29:07.236Z,98393.19
2023-04-21T20:31:34.222Z,98395.09
2023-04-21T20:34:00.956Z,98369.72
2023-04-21T20:36:28.508Z,98389.81
2023-04-21T20:38:57.555Z,98395.97
2023-04-21T20:41:24.167Z,98402.22
2023-04-21T20:43:50.861Z,98396.91
2023-04-21T20:46:18.506Z,98391.03
2023-04-21T20:48:45.162Z,98385.25
2023-04-21T20:51:12.244Z,98402.34
2023-04-21T20:53:38.834Z,98382.72
2023-04-21T20:56:05.588Z,98399.81
2023-04-21T20:58:32.818Z,98386.34
2023-04-21T21:00:59.351Z,98397.28
2023-04-21T21:03:26.117Z,98402.56
2023-04-21T21:05:53.231Z,98405.31
2023-04-21T21:08:20.169Z,98402.81
2023-04-21T21:10:46.772Z,98405.31
2023-04-21T21:13:13.481Z,98387.53
2023-04-21T21:15:40.243Z,98401.00
2023-04-21T21:18:07.241Z,98402.81
2023-04-21T21:20:33.911Z,98400.16
2023-04-21T21:23:00.533Z,98399.31
2023-04-21T21:25:27.169Z,98385.94
2023-04-21T21:27:53.829Z,98402.06
2023-04-21T21:30:20.563Z,98377.66
2023-04-21T21:32:47.709Z,98403.03
2023-04-21T21:35:14.427Z,98405.66
2023-04-21T21:37:41.182Z,98396.03
2023-04-21T21:40:09.258Z,98408.31
2023-04-21T21:42:37.242Z,98406.75
2023-04-21T21:45:04.104Z,98377.38
2023-04-21T21:47:30.941Z,98380.41
2023-04-21T21:49:58.867Z,98403.41
2023-04-21T21:52:28.656Z,98408.56
2023-04-21T21:54:55.742Z,98396.03
2023-04-21T21:57:22.626Z,98406.88
2023-04-21T21:59:49.210Z,98408.69
2023-04-21T22:02:15.874Z,98391.09
2023-04-21T22:04:42.995Z,98402.53
2023-04-21T22:07:09.649Z,98394.34
2023-04-21T22:09:37.256Z,98408.78
2023-04-21T22:12:06.712Z,98411.56
2023-04-21T22:14:35.926Z,98416.84
2023-04-21T22:17:02.922Z,98411.56
2023-04-21T22:19:31.121Z,98413.38
2023-04-21T22:21:57.994Z,98411.69
2023-04-21T22:24:24.506Z,98415.16
2023-04-21T22:26:51.136Z,98411.69
2023-04-21T22:29:17.839Z,98408.16
2023-04-21T22:31:44.688Z,98404.81
2023-04-21T22:34:14.916Z,98407.47
2023-04-21T22:36:41.586Z,98408.41
2023-04-21T22:39:08.116Z,98400.69
2023-04-21T22:41:38.354Z,98405.78
2023-04-21T22:44:05.539Z,98407.69
2023-04-21T22:46:33.465Z,98408.53
2023-04-21T22:49:02.428Z,98383.13
2023-04-21T22:51:29.808Z,98404.22
2023-04-21T22:53:56.630Z,98401.66
2023-04-21T22:56:23.342Z,98403.34
2023-04-21T22:58:50.001Z,98406.94
2023-04-21T23:01:16.769Z,98403.47
2023-04-21T23:03:43.601Z,98387.34
2023-04-21T23:06:10.139Z,98399.25
2023-04-21T23:08:36.687Z,98390.22
2023-04-21T23:11:06.303Z,98398.31
2023-04-21T23:13:32.928Z,98401.91
2023-04-21T23:15:59.628Z,98401.91
2023-04-21T23:18:26.318Z,98405.50
2023-04-21T23:20:53.034Z,98392.00
2023-04-21T23:23:19.836Z,98375.97
2023-04-21T23:25:46.409Z,98397.56
2023-04-21T23:28:12.991Z,98397.69
2023-04-21T23:30:39.541Z,98386.84
2023-04-21T23:33:06.490Z,98391.31
2023-04-21T23:35:33.149Z,98397.81
2023-04-21T23:37:59.677Z,98397.91
2023-04-21T23:40:26.245Z,98400.56
2023-04-21T23:42:52.845Z,98397.09
2023-04-21T23:45:19.560Z,98396.22
2023-04-21T23:47:46.261Z,98405.00
2023-04-21T23:50:12.933Z,98375.63
2023-04-21T23:52:42.022Z,98387.59
2023-04-21T23:55:10.115Z,98390.22
2023-04-21T23:57:37.004Z,98396.34
